createdAt,value
2023-04-25T04:02:40.266Z,9.20
2023-04-25T04:05:10.371Z,9.30
2023-04-25T04:07:40.841Z,9.30
2023-04-25T04:10:10.144Z,9.30
2023-04-25T04:12:38.600Z,9.30
2023-04-25T04:15:09.948Z,9.40
2023-04-25T04:17:39.901Z,9.40
2023-04-25T04:20:09.625Z,9.40
2023-04-25T04:22:38.199Z,9.30
2023-04-25T04:25:08.071Z,9.30
2023-04-25T04:27:36.435Z,9.20
2023-04-25T04:30:05.895Z,9.30
2023-04-25T04:32:35.593Z,9.20
2023-04-25T04:35:07.910Z,9.30
2023-04-25T04:37:36.169Z,9.30
2023-04-25T04:40:06.945Z,9.30
2023-04-25T04:42:35.236Z,9.40
2023-04-25T04:45:03.991Z,9.40
2023-04-25T04:47:33.472Z,9.40
2023-04-25T04:50:01.865Z,9.40
2023-04-25T04:52:31.542Z,9.40
2023-04-25T04:54:59.740Z,9.40
2023-04-25T04:57:28.051Z,9.40
2023-04-25T04:59:56.340Z,9.40
2023-04-25T05:02:24.628Z,9.50
2023-04-25T05:04:53.421Z,9.60
2023-04-25T05:07:22.005Z,9.70
2023-04-25T05:09:51.516Z,9.80
2023-04-25T05:12:19.941Z,9.80
2023-04-25T05:14:48.119Z,9.90
2023-04-25T05:17:16.331Z,9.80
2023-04-25T05:19:44.509Z,9.90
2023-04-25T05:22:12.750Z,9.80
2023-04-25T05:24:40.952Z,9.80
2023-04-25T05:27:10.537Z,9.80
2023-04-25T05:29:38.756Z,9.80
2023-04-25T05:32:08.646Z,9.80
2023-04-25T05:34:37.754Z,9.80
2023-04-25T05:37:06.037Z,9.80
2023-04-25T05:39:34.441Z,9.80
2023-04-25T05:42:04.776Z,9.80
2023-04-25T05:44:34.414Z,9.80
2023-04-25T05:47:02.637Z,9.70
2023-04-25T05:49:30.977Z,9.70
2023-04-25T05:51:59.165Z,9.80
2023-04-25T05:54:27.332Z,9.80
2023-04-25T05:56:55.538Z,10.00
2023-04-25T05:59:23.772Z,10.10
2023-04-25T06:01:53.661Z,10.20
2023-04-25T06:04:22.038Z,10.20
2023-04-25T06:06:51.012Z,10.10
2023-04-25T06:09:19.282Z,10.00
2023-04-25T06:11:47.438Z,9.90
2023-04-25T06:14:15.596Z,10.00
2023-04-25T06:16:43.860Z,10.00
2023-04-25T06:19:13.778Z,10.00
2023-04-25T06:21:42.051Z,10.00
2023-04-25T06:24:10.364Z,10.00
2023-04-25T06:26:38.646Z,10.00
2023-04-25T06:29:06.809Z,9.90
2023-04-25T06:31:34.976Z,10.00
2023-04-25T06:34:03.433Z,10.00
2023-04-25T06:36:32.914Z,10.10
2023-04-25T06:39:01.326Z,10.10
2023-04-25T06:41:29.542Z,10.20
2023-04-25T06:43:57.681Z,10.30
2023-04-25T06:46:26.012Z,10.40
2023-04-25T06:48:54.165Z,10.60
2023-04-25T06:51:24.179Z,10.80
2023-04-25T06:53:55.031Z,10.80
2023-04-25T06:56:24.203Z,10.80
2023-04-25T06:58:52.591Z,10.70
2023-04-25T07:01:22.077Z,10.70
2023-04-25T07:03:50.480Z,10.60
2023-04-25T07:06:19.071Z,10.50
2023-04-25T07:08:47.276Z,10.40
2023-04-25T07:11:16.903Z,10.40
2023-04-25T07:13:45.145Z,10.50
2023-04-25T07:16:13.409Z,10.60
2023-04-25T07:18:41.612Z,10.70
2023-04-25T07:21:10.034Z,10.70
2023-04-25T07:23:38.441Z,10.70
2023-04-25T07:26:06.764Z,10.80
2023-04-25T07:28:36.317Z,10.80
2023-04-25T07:31:04.719Z,10.70
2023-04-25T07:33:32.992Z,10.70
2023-04-25T07:36:01.230Z,10.60
2023-04-25T07:38:29.403Z,10.50
2023-04-25T07:40:57.583Z,10.40
2023-04-25T07:43:25.824Z,10.30
2023-04-25T07:45:55.382Z,10.20
2023-04-25T07:48:24.278Z,10.00
2023-04-25T07:50:52.405Z,10.00
2023-04-25T07:53:20.527Z,9.90
2023-04-25T07:55:48.769Z,9.90
2023-04-25T07:58:21.998Z,9.80
2023-04-25T08:00:51.043Z,9.80
2023-04-25T08:03:20.825Z,9.70
2023-04-25T08:05:49.616Z,9.80
2023-04-25T08:08:17.998Z,9.90
2023-04-25T08:10:46.172Z,10.00
2023-04-25T08:13:14.424Z,10.10
2023-04-25T08:15:43.127Z,10.20
2023-04-25T08:18:11.425Z,10.00
2023-04-25T08:20:41.518Z,9.90
2023-04-25T08:23:10.023Z,9.90
2023-04-25T08:25:38.302Z,10.00
2023-04-25T08:28:07.917Z,10.20
2023-04-25T08:30:36.164Z,10.30
2023-04-25T08:33:04.417Z,10.50
2023-04-25T08:35:34.029Z,10.70
2023-04-25T08:38:03.908Z,10.90
2023-04-25T08:40:39.802Z,11.10
2023-04-25T08:43:12.371Z,11.30
2023-04-25T08:45:44.370Z,11.50
2023-04-25T08:48:14.890Z,11.80
2023-04-25T08:50:52.687Z,12.00
2023-04-25T08:53:28.549Z,12.20
2023-04-25T08:55:59.363Z,12.20
2023-04-25T08:58:28.863Z,12.30
2023-04-25T09:00:57.201Z,12.30
2023-04-25T09:03:25.453Z,12.30
2023-04-25T09:05:54.779Z,12.10
2023-04-25T09:08:24.352Z,12.20
2023-04-25T09:10:52.569Z,12.10
2023-04-25T09:13:29.155Z,12.20
2023-04-25T09:15:59.588Z,12.30
2023-04-25T09:18:30.556Z,12.30
2023-04-25T09:21:13.023Z,12.30
2023-04-25T09:23:48.205Z,12.10
2023-04-25T09:26:17.874Z,12.00
2023-04-25T09:28:46.814Z,11.70
2023-04-25T09:31:24.239Z,11.70
2023-04-25T09:34:00.520Z,11.90
2023-04-25T09:36:32.785Z,12.20
2023-04-25T09:39:04.508Z,12.30
2023-04-25T09:41:35.749Z,12.50
2023-04-25T09:44:04.494Z,12.70
2023-04-25T09:46:37.440Z,12.90
2023-04-25T09:49:09.829Z,13.00
2023-04-25T09:51:38.182Z,13.30
2023-04-25T09:54:07.913Z,13.50
2023-04-25T09:56:39.196Z,13.40
2023-04-25T09:59:09.698Z,13.20
2023-04-25T10:01:42.724Z,13.10
2023-04-25T10:04:14.072Z,12.90
2023-04-25T10:06:45.269Z,12.90
2023-04-25T10:09:16.625Z,13.00
2023-04-25T10:11:46.685Z,13.10
2023-04-25T10:14:16.636Z,13.20
2023-04-25T10:16:46.080Z,13.30
2023-04-25T10:19:15.190Z,13.40
2023-04-25T10:21:57.598Z,13.50
2023-04-25T10:24:29.242Z,13.50
2023-04-25T10:27:00.195Z,13.40
2023-04-25T10:29:29.402Z,13.40
2023-04-25T10:31:58.871Z,13.60
2023-04-25T10:34:41.571Z,13.60
2023-04-25T10:37:12.289Z,13.50
2023-04-25T10:39:43.915Z,13.60
2023-04-25T10:42:12.147Z,13.40
2023-04-25T10:44:41.228Z,13.30
2023-04-25T10:47:11.633Z,13.40
2023-04-25T10:49:44.324Z,13.60
2023-04-25T10:52:26.397Z,14.10
2023-04-25T10:54:58.308Z,14.50
2023-04-25T10:57:35.247Z,14.20
2023-04-25T11:00:11.875Z,13.90
2023-04-25T11:02:44.078Z,13.50
2023-04-25T11:05:12.942Z,13.20
2023-04-25T11:08:00.053Z,13.00
2023-04-25T11:10:36.181Z,12.90
2023-04-25T11:13:05.367Z,12.70
2023-04-25T11:15:33.737Z,12.90
2023-04-25T11:21:35.023Z,13.50
2023-04-25T11:24:04.077Z,13.70
2023-04-25T11:26:34.252Z,13.70
2023-04-25T11:29:02.697Z,13.60
2023-04-25T11:31:32.036Z,13.30
2023-04-25T11:34:00.868Z,13.10
2023-04-25T11:36:29.342Z,12.90
2023-04-25T11:38:57.917Z,12.80
2023-04-25T11:41:29.254Z,12.80
2023-04-25T11:43:59.098Z,12.90
2023-04-25T11:46:27.318Z,13.00
2023-04-25T11:48:59.502Z,12.70
2023-04-25T11:51:28.026Z,12.10
2023-04-25T11:53:56.198Z,11.80
2023-04-25T11:56:25.272Z,11.60
2023-04-25T11:59:03.603Z,11.60
2023-04-25T12:01:35.632Z,11.60
2023-04-25T12:04:16.514Z,11.60
2023-04-25T12:06:49.176Z,11.80
2023-04-25T12:09:20.348Z,12.00
2023-04-25T12:11:51.047Z,12.20
2023-04-25T12:14:29.738Z,12.50
2023-04-25T12:16:59.781Z,12.70
2023-04-25T12:19:33.647Z,12.50
2023-04-25T12:22:04.023Z,12.50
2023-04-25T12:24:38.847Z,12.50
2023-04-25T12:27:09.053Z,12.40
2023-04-25T12:29:49.506Z,12.30
2023-04-25T12:32:18.707Z,12.30
2023-04-25T12:34:47.320Z,12.40
2023-04-25T12:37:16.584Z,12.50
2023-04-25T12:39:44.931Z,12.60
2023-04-25T12:42:14.295Z,12.70
2023-04-25T12:44:43.860Z,12.80
2023-04-25T12:47:12.187Z,12.90
2023-04-25T12:49:40.484Z,13.00
2023-04-25T12:52:08.710Z,13.20
2023-04-25T12:54:36.871Z,13.50
2023-04-25T12:57:05.619Z,13.70
2023-04-25T12:59:33.926Z,14.10
2023-04-25T13:02:04.335Z,14.50
2023-04-25T13:04:32.716Z,14.50
2023-04-25T13:07:00.912Z,14.10
2023-04-25T13:09:29.212Z,13.80
2023-04-25T13:11:59.369Z,13.50
2023-04-25T13:14:27.726Z,13.20
2023-04-25T13:16:56.430Z,13.10
2023-04-25T13:19:26.620Z,13.20
2023-04-25T13:21:54.784Z,13.30
2023-04-25T13:24:22.989Z,13.40
2023-04-25T13:26:51.472Z,13.20
2023-04-25T13:29:19.610Z,13.40
2023-04-25T13:31:47.899Z,13.70
2023-04-25T13:34:16.095Z,15.40
2023-04-25T13:36:46.437Z,18.30
2023-04-25T13:39:15.397Z,19.80
2023-04-25T13:41:43.549Z,19.20
2023-04-25T13:44:12.280Z,18.20
2023-04-25T13:46:46.942Z,17.30
2023-04-25T13:49:16.467Z,16.60
2023-04-25T13:51:46.125Z,15.90
2023-04-25T13:54:14.349Z,15.20
2023-04-25T13:56:44.011Z,14.60
2023-04-25T13:59:12.784Z,14.40
2023-04-25T14:01:41.253Z,14.50
2023-04-25T14:04:09.534Z,15.10
2023-04-25T14:06:37.999Z,16.20
2023-04-25T14:09:08.171Z,17.90
2023-04-25T14:11:36.478Z,18.30
2023-04-25T14:14:05.406Z,18.00
2023-04-25T14:16:33.915Z,17.10
2023-04-25T14:19:02.212Z,16.00
2023-04-25T14:21:33.362Z,15.00
2023-04-25T14:24:01.632Z,14.20
2023-04-25T14:26:31.239Z,13.50
2023-04-25T14:28:59.519Z,12.90
2023-04-25T14:31:28.089Z,12.40
2023-04-25T14:33:59.277Z,12.00
2023-04-25T14:36:28.379Z,11.50
2023-04-25T14:38:56.935Z,11.30
2023-04-25T14:41:27.457Z,11.20
2023-04-25T14:43:57.837Z,11.10
2023-04-25T14:46:26.671Z,10.90
2023-04-25T14:48:56.725Z,10.90
2023-04-25T14:51:25.459Z,10.90
2023-04-25T14:53:53.908Z,11.00
2023-04-25T14:56:22.314Z,11.20
2023-04-25T14:58:51.827Z,11.50
2023-04-25T15:01:22.866Z,12.10
2023-04-25T15:03:52.829Z,12.70
2023-04-25T15:06:21.425Z,13.30
2023-04-25T15:08:49.643Z,14.20
2023-04-25T15:11:17.936Z,14.40
2023-04-25T15:13:46.190Z,14.40
2023-04-25T15:16:14.454Z,13.90
2023-04-25T15:18:44.204Z,13.20
2023-04-25T15:21:12.483Z,12.80
2023-04-25T15:23:40.665Z,12.60
2023-04-25T15:26:09.487Z,12.30
2023-04-25T15:28:37.640Z,12.30
2023-04-25T15:31:06.449Z,12.20
2023-04-25T15:33:34.802Z,12.10
2023-04-25T15:36:05.111Z,12.20
2023-04-25T15:38:33.282Z,12.20
2023-04-25T15:41:01.563Z,12.40
2023-04-25T15:43:29.773Z,12.80
2023-04-25T15:45:58.456Z,13.90
2023-04-25T15:48:26.694Z,15.00
2023-04-25T15:50:54.894Z,15.70
2023-04-25T15:53:25.454Z,15.50
2023-04-25T15:55:53.629Z,14.60
2023-04-25T15:58:22.236Z,14.00
2023-04-25T16:00:51.697Z,13.70
2023-04-25T16:03:20.018Z,13.20
2023-04-25T16:05:48.268Z,12.90
2023-04-25T16:08:16.777Z,12.70
2023-04-25T16:10:46.468Z,12.60
2023-04-25T16:13:14.708Z,12.60
2023-04-25T16:15:42.943Z,12.40
2023-04-25T16:18:11.090Z,12.10
2023-04-25T16:20:39.312Z,11.80
2023-04-25T16:23:07.490Z,11.50
2023-04-25T16:25:36.233Z,11.30
2023-04-25T16:28:05.846Z,11.20
2023-04-25T16:30:34.024Z,11.10
2023-04-25T16:33:02.562Z,11.00
2023-04-25T16:35:32.482Z,10.90
2023-04-25T16:38:00.744Z,10.70
2023-04-25T16:40:28.989Z,10.70
2023-04-25T16:42:57.657Z,10.60
2023-04-25T16:45:28.074Z,10.50
2023-04-25T16:47:56.285Z,10.40
2023-04-25T16:50:25.520Z,10.30
2023-04-25T16:52:54.472Z,10.40
2023-04-25T16:55:22.783Z,10.30
2023-04-25T16:57:51.040Z,10.20
2023-04-25T17:00:20.133Z,10.20
2023-04-25T17:02:51.378Z,10.20
2023-04-25T17:05:19.795Z,10.10
2023-04-25T17:07:48.003Z,10.00
2023-04-25T17:10:16.239Z,10.10
2023-04-25T17:12:44.400Z,10.10
2023-04-25T17:15:12.870Z,10.30
2023-04-25T17:17:41.302Z,10.30
2023-04-25T17:20:13.640Z,10.50
2023-04-25T17:22:41.974Z,10.80
2023-04-25T17:25:11.364Z,10.80
2023-04-25T17:27:39.595Z,10.90
2023-04-25T17:30:09.896Z,11.00
2023-04-25T17:32:38.145Z,11.20
2023-04-25T17:35:07.449Z,11.70
2023-04-25T17:37:37.074Z,12.10
2023-04-25T17:40:06.724Z,12.50
2023-04-25T17:42:34.848Z,12.50
2023-04-25T17:45:03.535Z,12.40
2023-04-25T17:47:32.006Z,12.00
2023-04-25T17:50:00.352Z,11.50
2023-04-25T17:52:29.156Z,11.00
2023-04-25T17:54:58.671Z,10.60
2023-04-25T17:57:27.226Z,10.30
2023-04-25T17:59:57.743Z,10.10
2023-04-25T18:02:27.762Z,10.00
2023-04-25T18:04:56.998Z,9.80
2023-04-25T18:07:25.430Z,9.70
2023-04-25T18:09:53.637Z,9.60
2023-04-25T18:12:23.316Z,9.40
2023-04-25T18:14:51.486Z,9.30
2023-04-25T18:17:20.897Z,9.20
2023-04-25T18:19:50.947Z,9.10
2023-04-25T18:22:19.527Z,9.00
2023-04-25T18:24:47.837Z,9.00
2023-04-25T18:27:16.143Z,9.00
2023-04-25T18:29:45.760Z,9.00
2023-04-25T18:32:14.627Z,9.00
2023-04-25T18:34:46.047Z,9.00
2023-04-25T18:37:14.312Z,9.00
2023-04-25T18:39:42.997Z,9.00
2023-04-25T18:42:11.757Z,8.90
2023-04-25T18:44:40.914Z,8.80
2023-04-25T18:47:12.952Z,8.70
2023-04-25T18:49:41.464Z,8.60
2023-04-25T18:52:12.261Z,8.60
2023-04-25T18:54:40.961Z,8.60
2023-04-25T18:57:09.356Z,8.70
2023-04-25T18:59:37.557Z,8.70
2023-04-25T19:02:05.927Z,8.80
2023-04-25T19:04:36.200Z,8.80
2023-04-25T19:07:04.529Z,8.90
2023-04-25T19:09:33.627Z,8.90
2023-04-25T19:12:03.184Z,9.00
2023-04-25T19:14:33.702Z,9.00
2023-04-25T19:17:02.081Z,9.00
2023-04-25T19:19:30.373Z,9.00
2023-04-25T19:22:00.783Z,8.80
2023-04-25T19:24:29.003Z,8.70
2023-04-25T19:26:57.208Z,8.50
2023-04-25T19:29:25.454Z,8.40
2023-04-25T19:31:54.503Z,8.30
2023-04-25T19:34:23.336Z,8.10
2023-04-25T19:36:53.988Z,8.00
2023-04-25T19:39:23.917Z,7.90
2023-04-25T19:41:52.141Z,7.80
2023-04-25T19:44:20.645Z,7.80
2023-04-25T19:46:49.604Z,7.70
2023-04-25T19:49:17.880Z,7.70
2023-04-25T19:51:47.978Z,7.60
2023-04-25T19:54:16.151Z,7.60
2023-04-25T19:56:45.786Z,7.60
2023-04-25T19:59:14.011Z,7.60
2023-04-25T20:01:42.632Z,7.60
2023-04-25T20:04:10.847Z,7.60
2023-04-25T20:06:39.313Z,7.50
2023-04-25T20:09:09.422Z,7.50
2023-04-25T20:11:37.712Z,7.50
2023-04-25T20:14:07.354Z,7.40
2023-04-25T20:16:36.312Z,7.40
2023-04-25T20:19:05.099Z,7.40
2023-04-25T20:21:34.228Z,7.40
2023-04-25T20:24:02.718Z,7.40
2023-04-25T20:26:33.888Z,7.30
2023-04-25T20:29:02.194Z,7.30
2023-04-25T20:31:32.671Z,7.30
2023-04-25T20:34:01.229Z,7.20
2023-04-25T20:36:29.570Z,7.20
2023-04-25T20:38:58.070Z,7.20
2023-04-25T20:41:26.246Z,7.20
2023-04-25T20:43:54.737Z,7.10
2023-04-25T20:46:23.042Z,7.10
2023-04-25T20:48:53.325Z,7.10
2023-04-25T20:51:22.902Z,7.10
2023-04-25T20:53:51.278Z,7.00
2023-04-25T20:56:20.564Z,7.00
2023-04-25T20:58:49.260Z,7.00
